Aviation Digital Data Service (ADDS)

Output produced by METARs form (1103 UTC 30 April 2017)
found at http://www.aviationweather.gov/adds/metars/
 
SLCO 301000Z 17003KT 9999 FEW080 20/18 Q1015
TAF SLCO 301000Z 3012/0112 00000KT 9999 NSC TX31/3019Z TN18/0110Z 
     TEMPO 3014/3017 16008KT SCT020 
     BECMG 3023/0101 00000KT NSC
       
SLCB 301000Z 21005KT 7000 FEW010 SCT025 OVC070 11/11 Q1030
TAF SLCB 301000Z 3012/0112 00000KT 9999 FEW015 SCT025 BKN070 TX25/ 3019Z TN10/0110Z 
     BECMG 3016/3018 29010KT SCT027 SCT070
       
SLLP 301000Z 06006KT 9999 FEW004 SCT012 BKN070 03/01 Q1039
TAF SLLP 301010Z 3012/0112 11005KT 9999 FEW009 SCT015 BKN070 TX13/ 3020Z TN02/0110Z 
     TEMPO 3018/3021 04012KT 8000 VCTSSH SCT017 FEW020CB SCT070 
     BECMG 0102/0105 4000E VCFG FEW002 SCT013 BKN070
       
SLPO 301000Z 00000KT 9999 BKN015 BKN200 02/M03 Q1040
SLPS 301000Z 00000KT 9999 NSC 18/17 Q1016
TAF SLPS 301000Z 3012/0112 00000KT 9999 NSC TX31/3019Z TN16/0110Z 
     BECMG 3014/3016 24004KT FEW033 
     BECMG 3023/0101 00000KT NSC
       
SLRI 301000Z 16006KT 9999 FEW015 SCT080 22/22 Q1015
SLSA 301000Z 00000KT 9999 NSC 20/19 Q1016
SLET 301000Z 17008KT 9999 SCT080 18/12 Q1018
TAF SLET 301000Z 3012/0112 18008KT 9999 NSC TX29/3020Z TN18/0111Z 
     BECMG 3015/3017 17012KT FEW030 
     BECMG 3023/0102 16005KT NSC
       
SLVR 301000Z 19010KT 9999 FEW080 SCT200 18/12 Q1018
TAF SLVR 301000Z 3012/0112 17008KT 9999 NSC TX29/3020Z TN18/0111Z 
     BECMG 3015/3017 18012KT FEW030 
     BECMG 3023/0102 16005KT NSC
       
SLTJ 301000Z 18005KT 9999 BKN030 10/08 Q1024 METAR
TAF SLTJ 301000Z 3012/0112 00000KT 9999 BKN030 TX24/3019Z TN08/0110Z 
     BECMG 3016/3018 14010KT SCT030 SCT070
       
SLTR 301000Z 18003KT 9999 NSC 20/17 Q1016
TAF SLTR 301000Z 3012/0112 00000KT 9999 NSC TX30/3019Z TN18/0110Z 
     TEMPO 3014/3017 16008KT FEW023 
     BECMG 3023/0101 00000KT NSC
       
SLYA 301000Z 00000KT 9999 FEW027 OVC070 16/16 Q1020